sensor_id;sensor_type;location;lat;lon;timestamp;temperature;humidity
31309;DHT22;17936;52.446;10.840;2022-08-07T00:00:26;12.90;99.90
31309;DHT22;17936;52.446;10.840;2022-08-07T00:02:53;12.50;99.90
31309;DHT22;17936;52.446;10.840;2022-08-07T00:05:20;12.30;99.90
31309;DHT22;17936;52.446;10.840;2022-08-07T00:07:46;12.30;99.90
31309;DHT22;17936;52.446;10.840;2022-08-07T00:10:12;12.10;99.90
31309;DHT22;17936;52.446;10.840;2022-08-07T00:12:37;12.50;99.90
31309;DHT22;17936;52.446;10.840;2022-08-07T00:15:03;12.20;99.90
31309;DHT22;17936;52.446;10.840;2022-08-07T00:17:30;11.90;99.90
31309;DHT22;17936;52.446;10.840;2022-08-07T00:19:55;12.00;99.90
31309;DHT22;17936;52.446;10.840;2022-08-07T00:22:20;11.90;99.90
31309;DHT22;17936;52.446;10.840;2022-08-07T00:24:46;12.00;99.90
31309;DHT22;17936;52.446;10.840;2022-08-07T00:27:11;12.10;99.90
31309;DHT22;17936;52.446;10.840;2022-08-07T00:29:37;12.40;99.90
31309;DHT22;17936;52.446;10.840;2022-08-07T00:32:05;12.70;99.90
31309;DHT22;17936;52.446;10.840;2022-08-07T00:34:31;12.70;99.90
31309;DHT22;17936;52.446;10.840;2022-08-07T00:36:56;12.60;99.90
31309;DHT22;17936;52.446;10.840;2022-08-07T00:39:22;12.60;99.90
31309;DHT22;17936;52.446;10.840;2022-08-07T00:41:53;12.20;99.90
31309;DHT22;17936;52.446;10.840;2022-08-07T00:44:18;12.20;99.90
31309;DHT22;17936;52.446;10.840;2022-08-07T00:46:44;11.80;99.90
31309;DHT22;17936;52.446;10.840;2022-08-07T00:49:10;11.70;99.90
31309;DHT22;17936;52.446;10.840;2022-08-07T00:51:36;11.60;99.90
31309;DHT22;17936;52.446;10.840;2022-08-07T00:54:02;12.00;99.90
31309;DHT22;17936;52.446;10.840;2022-08-07T00:56:27;12.20;99.90
31309;DHT22;17936;52.446;10.840;2022-08-07T00:58:54;11.90;99.90
31309;DHT22;17936;52.446;10.840;2022-08-07T01:01:20;12.20;99.90
31309;DHT22;17936;52.446;10.840;2022-08-07T01:03:47;12.30;99.90
31309;DHT22;17936;52.446;10.840;2022-08-07T01:06:14;12.40;99.90
31309;DHT22;17936;52.446;10.840;2022-08-07T01:08:40;12.50;99.90
31309;DHT22;17936;52.446;10.840;2022-08-07T01:11:06;12.40;99.90
31309;DHT22;17936;52.446;10.840;2022-08-07T01:13:31;12.50;99.90
31309;DHT22;17936;52.446;10.840;2022-08-07T01:15:58;12.50;99.90
31309;DHT22;17936;52.446;10.840;2022-08-07T01:18:23;12.50;99.90
31309;DHT22;17936;52.446;10.840;2022-08-07T01:21:07;12.40;99.90
31309;DHT22;17936;52.446;10.840;2022-08-07T01:23:34;12.10;99.90
31309;DHT22;17936;52.446;10.840;2022-08-07T01:26:00;12.30;99.90
31309;DHT22;17936;52.446;10.840;2022-08-07T01:28:27;12.40;99.90
31309;DHT22;17936;52.446;10.840;2022-08-07T01:30:54;11.60;99.90
31309;DHT22;17936;52.446;10.840;2022-08-07T01:33:20;11.40;99.90
31309;DHT22;17936;52.446;10.840;2022-08-07T01:35:47;11.30;99.90
31309;DHT22;17936;52.446;10.840;2022-08-07T01:38:12;11.50;99.90
31309;DHT22;17936;52.446;10.840;2022-08-07T01:40:39;11.30;99.90
31309;DHT22;17936;52.446;10.840;2022-08-07T01:43:05;11.20;99.90
31309;DHT22;17936;52.446;10.840;2022-08-07T01:45:32;11.40;99.90
31309;DHT22;17936;52.446;10.840;2022-08-07T01:47:58;11.60;99.90
31309;DHT22;17936;52.446;10.840;2022-08-07T01:50:24;11.80;99.90
31309;DHT22;17936;52.446;10.840;2022-08-07T01:52:52;11.50;99.90
31309;DHT22;17936;52.446;10.840;2022-08-07T01:55:25;11.70;99.90
31309;DHT22;17936;52.446;10.840;2022-08-07T01:57:55;11.90;99.90
31309;DHT22;17936;52.446;10.840;2022-08-07T02:00:25;12.00;99.90
31309;DHT22;17936;52.446;10.840;2022-08-07T02:02:55;12.00;99.90
31309;DHT22;17936;52.446;10.840;2022-08-07T02:05:28;11.40;99.90
31309;DHT22;17936;52.446;10.840;2022-08-07T02:07:57;11.20;99.90
31309;DHT22;17936;52.446;10.840;2022-08-07T02:10:25;11.00;99.90
31309;DHT22;17936;52.446;10.840;2022-08-07T02:12:53;11.20;99.90
31309;DHT22;17936;52.446;10.840;2022-08-07T02:15:23;11.50;99.90
31309;DHT22;17936;52.446;10.840;2022-08-07T02:17:50;11.50;99.90
31309;DHT22;17936;52.446;10.840;2022-08-07T02:20:18;11.60;99.90
31309;DHT22;17936;52.446;10.840;2022-08-07T02:22:46;11.80;99.90
31309;DHT22;17936;52.446;10.840;2022-08-07T02:25:15;11.70;99.90
31309;DHT22;17936;52.446;10.840;2022-08-07T02:27:43;11.10;99.90
31309;DHT22;17936;52.446;10.840;2022-08-07T02:30:10;10.80;99.90
31309;DHT22;17936;52.446;10.840;2022-08-07T02:32:37;11.00;99.90
31309;DHT22;17936;52.446;10.840;2022-08-07T02:35:04;10.80;99.90
31309;DHT22;17936;52.446;10.840;2022-08-07T02:37:33;10.70;99.90
31309;DHT22;17936;52.446;10.840;2022-08-07T02:40:01;10.90;99.90
31309;DHT22;17936;52.446;10.840;2022-08-07T02:42:29;11.30;99.90
31309;DHT22;17936;52.446;10.840;2022-08-07T02:44:55;11.50;99.90
31309;DHT22;17936;52.446;10.840;2022-08-07T02:47:21;11.50;99.90
31309;DHT22;17936;52.446;10.840;2022-08-07T02:49:47;11.50;99.90
31309;DHT22;17936;52.446;10.840;2022-08-07T02:52:17;11.30;99.90
31309;DHT22;17936;52.446;10.840;2022-08-07T02:54:44;11.00;99.90
31309;DHT22;17936;52.446;10.840;2022-08-07T02:57:11;10.70;99.90
31309;DHT22;17936;52.446;10.840;2022-08-07T02:59:41;10.80;99.90
31309;DHT22;17936;52.446;10.840;2022-08-07T03:02:11;11.10;99.90
31309;DHT22;17936;52.446;10.840;2022-08-07T03:04:40;11.30;99.90
31309;DHT22;17936;52.446;10.840;2022-08-07T03:07:06;11.30;99.90
31309;DHT22;17936;52.446;10.840;2022-08-07T03:09:32;11.40;99.90
31309;DHT22;17936;52.446;10.840;2022-08-07T03:11:58;11.40;99.90
31309;DHT22;17936;52.446;10.840;2022-08-07T03:14:25;11.30;99.90
31309;DHT22;17936;52.446;10.840;2022-08-07T03:16:51;11.30;99.90
31309;DHT22;17936;52.446;10.840;2022-08-07T03:19:17;11.00;99.90
31309;DHT22;17936;52.446;10.840;2022-08-07T03:21:42;11.10;99.90
31309;DHT22;17936;52.446;10.840;2022-08-07T03:24:08;10.70;99.90
31309;DHT22;17936;52.446;10.840;2022-08-07T03:26:35;11.00;99.90
31309;DHT22;17936;52.446;10.840;2022-08-07T03:29:05;11.10;99.90
31309;DHT22;17936;52.446;10.840;2022-08-07T03:31:32;10.60;99.90
31309;DHT22;17936;52.446;10.840;2022-08-07T03:34:01;10.70;99.90
31309;DHT22;17936;52.446;10.840;2022-08-07T03:36:29;10.30;99.90
31309;DHT22;17936;52.446;10.840;2022-08-07T03:39:03;10.30;99.90
31309;DHT22;17936;52.446;10.840;2022-08-07T03:41:30;10.20;99.90
31309;DHT22;17936;52.446;10.840;2022-08-07T03:43:56;10.10;99.90
31309;DHT22;17936;52.446;10.840;2022-08-07T03:46:22;10.00;99.90
31309;DHT22;17936;52.446;10.840;2022-08-07T03:48:50;10.00;99.90
31309;DHT22;17936;52.446;10.840;2022-08-07T03:51:17;10.20;99.90
31309;DHT22;17936;52.446;10.840;2022-08-07T03:53:42;10.60;99.90
31309;DHT22;17936;52.446;10.840;2022-08-07T03:56:09;10.80;99.90
31309;DHT22;17936;52.446;10.840;2022-08-07T03:58:35;10.90;99.90
31309;DHT22;17936;52.446;10.840;2022-08-07T04:01:03;11.00;99.90
31309;DHT22;17936;52.446;10.840;2022-08-07T04:03:28;11.00;99.90
31309;DHT22;17936;52.446;10.840;2022-08-07T04:05:54;11.00;99.90
31309;DHT22;17936;52.446;10.840;2022-08-07T04:08:20;11.00;99.90
31309;DHT22;17936;52.446;10.840;2022-08-07T04:10:46;11.10;99.90
31309;DHT22;17936;52.446;10.840;2022-08-07T04:13:13;11.10;99.90
31309;DHT22;17936;52.446;10.840;2022-08-07T04:15:40;11.20;99.90
31309;DHT22;17936;52.446;10.840;2022-08-07T04:18:06;11.20;99.90
31309;DHT22;17936;52.446;10.840;2022-08-07T04:20:31;10.70;99.90
31309;DHT22;17936;52.446;10.840;2022-08-07T04:22:58;10.70;99.90
31309;DHT22;17936;52.446;10.840;2022-08-07T04:25:24;11.00;99.90
31309;DHT22;17936;52.446;10.840;2022-08-07T04:27:50;10.50;99.90
31309;DHT22;17936;52.446;10.840;2022-08-07T04:30:16;10.80;99.90
31309;DHT22;17936;52.446;10.840;2022-08-07T04:32:42;10.60;99.90
31309;DHT22;17936;52.446;10.840;2022-08-07T04:35:08;10.20;99.90
31309;DHT22;17936;52.446;10.840;2022-08-07T04:37:34;10.20;99.90
31309;DHT22;17936;52.446;10.840;2022-08-07T04:40:01;10.70;99.90
31309;DHT22;17936;52.446;10.840;2022-08-07T04:42:27;11.10;99.90
31309;DHT22;17936;52.446;10.840;2022-08-07T04:44:55;11.20;99.90
31309;DHT22;17936;52.446;10.840;2022-08-07T04:47:49;10.80;99.90
31309;DHT22;17936;52.446;10.840;2022-08-07T04:50:40;10.60;99.90
31309;DHT22;17936;52.446;10.840;2022-08-07T04:53:07;10.60;99.90
31309;DHT22;17936;52.446;10.840;2022-08-07T04:55:50;10.70;99.90
31309;DHT22;17936;52.446;10.840;2022-08-07T04:58:57;10.70;99.90
31309;DHT22;17936;52.446;10.840;2022-08-07T05:01:43;11.00;99.90
31309;DHT22;17936;52.446;10.840;2022-08-07T05:04:17;11.20;99.90
31309;DHT22;17936;52.446;10.840;2022-08-07T05:07:00;11.50;99.90
31309;DHT22;17936;52.446;10.840;2022-08-07T05:09:52;11.50;99.90
31309;DHT22;17936;52.446;10.840;2022-08-07T05:12:28;11.90;99.90
31309;DHT22;17936;52.446;10.840;2022-08-07T05:15:20;12.10;99.90
31309;DHT22;17936;52.446;10.840;2022-08-07T05:17:46;12.20;99.90
31309;DHT22;17936;52.446;10.840;2022-08-07T05:20:15;12.20;99.90
31309;DHT22;17936;52.446;10.840;2022-08-07T05:22:43;12.20;99.90
31309;DHT22;17936;52.446;10.840;2022-08-07T05:25:11;12.20;99.90
31309;DHT22;17936;52.446;10.840;2022-08-07T05:27:40;12.20;99.90
31309;DHT22;17936;52.446;10.840;2022-08-07T05:30:07;12.20;99.90
31309;DHT22;17936;52.446;10.840;2022-08-07T05:32:33;12.50;99.90
31309;DHT22;17936;52.446;10.840;2022-08-07T05:35:01;12.80;99.90
31309;DHT22;17936;52.446;10.840;2022-08-07T05:37:27;13.00;99.90
31309;DHT22;17936;52.446;10.840;2022-08-07T05:39:54;13.10;99.90
31309;DHT22;17936;52.446;10.840;2022-08-07T05:42:21;13.30;99.90
31309;DHT22;17936;52.446;10.840;2022-08-07T05:44:47;13.50;99.90
31309;DHT22;17936;52.446;10.840;2022-08-07T05:47:13;13.50;99.90
31309;DHT22;17936;52.446;10.840;2022-08-07T05:49:40;14.00;99.90
31309;DHT22;17936;52.446;10.840;2022-08-07T05:52:06;14.10;99.90
31309;DHT22;17936;52.446;10.840;2022-08-07T05:54:33;14.20;99.90
31309;DHT22;17936;52.446;10.840;2022-08-07T05:57:00;14.60;99.90
31309;DHT22;17936;52.446;10.840;2022-08-07T05:59:27;14.60;99.90
31309;DHT22;17936;52.446;10.840;2022-08-07T06:01:56;14.80;99.90
31309;DHT22;17936;52.446;10.840;2022-08-07T06:04:23;15.10;99.90
31309;DHT22;17936;52.446;10.840;2022-08-07T06:06:48;15.10;99.90
31309;DHT22;17936;52.446;10.840;2022-08-07T06:09:16;15.30;99.90
31309;DHT22;17936;52.446;10.840;2022-08-07T06:11:42;15.50;99.90
31309;DHT22;17936;52.446;10.840;2022-08-07T06:14:07;15.70;99.90
31309;DHT22;17936;52.446;10.840;2022-08-07T06:16:33;15.60;99.90
31309;DHT22;17936;52.446;10.840;2022-08-07T06:19:00;15.80;99.90
31309;DHT22;17936;52.446;10.840;2022-08-07T06:21:27;15.90;99.90
31309;DHT22;17936;52.446;10.840;2022-08-07T06:23:53;16.00;99.90
31309;DHT22;17936;52.446;10.840;2022-08-07T06:26:19;16.40;99.90
31309;DHT22;17936;52.446;10.840;2022-08-07T06:28:53;16.30;99.90
31309;DHT22;17936;52.446;10.840;2022-08-07T06:31:20;16.30;99.90
31309;DHT22;17936;52.446;10.840;2022-08-07T06:33:46;16.50;99.90
31309;DHT22;17936;52.446;10.840;2022-08-07T06:36:12;16.60;99.90
31309;DHT22;17936;52.446;10.840;2022-08-07T06:38:38;16.70;99.90
31309;DHT22;17936;52.446;10.840;2022-08-07T06:41:08;17.00;99.90
31309;DHT22;17936;52.446;10.840;2022-08-07T06:43:35;17.10;99.90
31309;DHT22;17936;52.446;10.840;2022-08-07T06:46:02;17.30;99.90
31309;DHT22;17936;52.446;10.840;2022-08-07T06:48:28;17.70;99.90
31309;DHT22;17936;52.446;10.840;2022-08-07T06:50:56;18.10;99.90
31309;DHT22;17936;52.446;10.840;2022-08-07T06:53:23;18.40;99.90
31309;DHT22;17936;52.446;10.840;2022-08-07T06:55:51;18.40;99.90
31309;DHT22;17936;52.446;10.840;2022-08-07T06:58:19;18.50;99.90
31309;DHT22;17936;52.446;10.840;2022-08-07T07:00:45;18.60;99.90
31309;DHT22;17936;52.446;10.840;2022-08-07T07:03:12;18.50;99.90
31309;DHT22;17936;52.446;10.840;2022-08-07T07:05:38;18.60;99.90
31309;DHT22;17936;52.446;10.840;2022-08-07T07:08:04;18.50;99.90
31309;DHT22;17936;52.446;10.840;2022-08-07T07:10:31;18.90;99.90
31309;DHT22;17936;52.446;10.840;2022-08-07T07:13:03;19.00;99.90
31309;DHT22;17936;52.446;10.840;2022-08-07T07:15:35;18.90;99.90
31309;DHT22;17936;52.446;10.840;2022-08-07T07:18:16;19.20;99.90
31309;DHT22;17936;52.446;10.840;2022-08-07T07:20:53;19.10;99.90
31309;DHT22;17936;52.446;10.840;2022-08-07T07:23:19;19.00;99.90
31309;DHT22;17936;52.446;10.840;2022-08-07T07:25:48;19.30;99.90
31309;DHT22;17936;52.446;10.840;2022-08-07T07:28:22;19.40;99.90
31309;DHT22;17936;52.446;10.840;2022-08-07T07:30:58;20.00;99.90
31309;DHT22;17936;52.446;10.840;2022-08-07T07:33:25;20.00;99.90
31309;DHT22;17936;52.446;10.840;2022-08-07T07:35:52;20.50;99.90
31309;DHT22;17936;52.446;10.840;2022-08-07T07:38:21;20.50;99.90
31309;DHT22;17936;52.446;10.840;2022-08-07T07:40:47;20.90;99.90
31309;DHT22;17936;52.446;10.840;2022-08-07T07:43:15;21.20;99.90
31309;DHT22;17936;52.446;10.840;2022-08-07T07:45:42;20.70;99.90
31309;DHT22;17936;52.446;10.840;2022-08-07T07:48:11;21.10;99.90
31309;DHT22;17936;52.446;10.840;2022-08-07T07:50:38;21.20;99.90
31309;DHT22;17936;52.446;10.840;2022-08-07T07:53:08;21.10;99.90
31309;DHT22;17936;52.446;10.840;2022-08-07T07:55:36;21.40;99.90
31309;DHT22;17936;52.446;10.840;2022-08-07T07:58:03;21.00;99.90
31309;DHT22;17936;52.446;10.840;2022-08-07T08:00:29;21.20;99.90
31309;DHT22;17936;52.446;10.840;2022-08-07T08:03:00;21.70;99.90
31309;DHT22;17936;52.446;10.840;2022-08-07T08:05:28;21.80;99.90
31309;DHT22;17936;52.446;10.840;2022-08-07T08:07:53;21.70;99.90
31309;DHT22;17936;52.446;10.840;2022-08-07T08:10:20;21.70;99.90
31309;DHT22;17936;52.446;10.840;2022-08-07T08:12:47;21.50;99.90
31309;DHT22;17936;52.446;10.840;2022-08-07T08:15:13;21.90;99.90
31309;DHT22;17936;52.446;10.840;2022-08-07T08:17:39;22.80;99.90
31309;DHT22;17936;52.446;10.840;2022-08-07T08:20:06;22.40;99.90
31309;DHT22;17936;52.446;10.840;2022-08-07T08:22:40;22.20;99.90
31309;DHT22;17936;52.446;10.840;2022-08-07T08:25:28;22.30;99.90
31309;DHT22;17936;52.446;10.840;2022-08-07T08:28:17;22.80;99.90
31309;DHT22;17936;52.446;10.840;2022-08-07T08:30:44;22.50;99.90
31309;DHT22;17936;52.446;10.840;2022-08-07T08:33:11;23.10;99.90
31309;DHT22;17936;52.446;10.840;2022-08-07T08:35:41;22.90;99.90
31309;DHT22;17936;52.446;10.840;2022-08-07T08:38:08;23.20;99.80
31309;DHT22;17936;52.446;10.840;2022-08-07T08:40:39;23.10;99.90
31309;DHT22;17936;52.446;10.840;2022-08-07T08:46:06;23.70;97.40
31309;DHT22;17936;52.446;10.840;2022-08-07T08:48:45;23.20;96.70
31309;DHT22;17936;52.446;10.840;2022-08-07T08:51:30;23.20;96.60
31309;DHT22;17936;52.446;10.840;2022-08-07T08:54:05;23.40;96.20
31309;DHT22;17936;52.446;10.840;2022-08-07T08:56:38;24.10;94.50
31309;DHT22;17936;52.446;10.840;2022-08-07T08:59:26;23.50;93.30
31309;DHT22;17936;52.446;10.840;2022-08-07T09:11:01;23.50;94.00
31309;DHT22;17936;52.446;10.840;2022-08-07T09:13:38;24.00;92.90
31309;DHT22;17936;52.446;10.840;2022-08-07T09:16:17;24.40;93.30
31309;DHT22;17936;52.446;10.840;2022-08-07T09:21:31;24.00;92.20
31309;DHT22;17936;52.446;10.840;2022-08-07T09:27:22;22.10;95.30
31309;DHT22;17936;52.446;10.840;2022-08-07T09:35:44;23.00;95.50
31309;DHT22;17936;52.446;10.840;2022-08-07T09:41:07;24.10;93.80
31309;DHT22;17936;52.446;10.840;2022-08-07T09:51:50;23.10;94.50
31309;DHT22;17936;52.446;10.840;2022-08-07T09:54:25;23.90;92.20
31309;DHT22;17936;52.446;10.840;2022-08-07T09:57:16;23.80;92.90
31309;DHT22;17936;52.446;10.840;2022-08-07T10:00:07;23.00;92.10
31309;DHT22;17936;52.446;10.840;2022-08-07T10:02:38;22.20;93.40
31309;DHT22;17936;52.446;10.840;2022-08-07T10:10:48;24.20;91.10
31309;DHT22;17936;52.446;10.840;2022-08-07T10:16:15;22.50;94.00
31309;DHT22;17936;52.446;10.840;2022-08-07T10:27:45;21.70;95.00
31309;DHT22;17936;52.446;10.840;2022-08-07T10:30:17;22.10;93.40
31309;DHT22;17936;52.446;10.840;2022-08-07T10:33:10;22.00;93.90
31309;DHT22;17936;52.446;10.840;2022-08-07T10:38:57;22.00;93.60
31309;DHT22;17936;52.446;10.840;2022-08-07T10:41:34;21.60;92.60
31309;DHT22;17936;52.446;10.840;2022-08-07T10:44:16;22.00;93.60
31309;DHT22;17936;52.446;10.840;2022-08-07T10:46:53;22.00;93.10
31309;DHT22;17936;52.446;10.840;2022-08-07T10:49:31;22.00;94.30
31309;DHT22;17936;52.446;10.840;2022-08-07T10:52:24;22.10;92.40
31309;DHT22;17936;52.446;10.840;2022-08-07T10:55:14;21.80;93.00
31309;DHT22;17936;52.446;10.840;2022-08-07T10:58:11;21.60;92.40
31309;DHT22;17936;52.446;10.840;2022-08-07T11:01:44;21.60;92.40
31309;DHT22;17936;52.446;10.840;2022-08-07T11:04:04;22.00;92.00
31309;DHT22;17936;52.446;10.840;2022-08-07T11:06:39;22.20;93.10
31309;DHT22;17936;52.446;10.840;2022-08-07T11:09:16;22.20;91.30
31309;DHT22;17936;52.446;10.840;2022-08-07T11:17:42;22.60;91.60
31309;DHT22;17936;52.446;10.840;2022-08-07T11:20:25;23.70;90.10
31309;DHT22;17936;52.446;10.840;2022-08-07T11:23:23;24.60;87.20
31309;DHT22;17936;52.446;10.840;2022-08-07T11:26:11;24.30;84.80
31309;DHT22;17936;52.446;10.840;2022-08-07T11:28:57;24.70;85.60
31309;DHT22;17936;52.446;10.840;2022-08-07T11:31:40;25.10;82.70
31309;DHT22;17936;52.446;10.840;2022-08-07T11:34:14;25.10;77.10
31309;DHT22;17936;52.446;10.840;2022-08-07T11:36:57;25.40;79.00
31309;DHT22;17936;52.446;10.840;2022-08-07T11:45:17;25.40;77.10
31309;DHT22;17936;52.446;10.840;2022-08-07T11:53:30;25.90;76.40
31309;DHT22;17936;52.446;10.840;2022-08-07T11:56:11;26.30;71.50
31309;DHT22;17936;52.446;10.840;2022-08-07T12:01:34;25.70;78.10
31309;DHT22;17936;52.446;10.840;2022-08-07T12:06:59;26.10;75.90
31309;DHT22;17936;52.446;10.840;2022-08-07T12:09:44;25.90;78.20
31309;DHT22;17936;52.446;10.840;2022-08-07T12:12:12;25.90;75.20
31309;DHT22;17936;52.446;10.840;2022-08-07T12:14:46;25.30;78.40
31309;DHT22;17936;52.446;10.840;2022-08-07T12:17:16;25.30;76.80
31309;DHT22;17936;52.446;10.840;2022-08-07T12:19:49;25.60;77.20
31309;DHT22;17936;52.446;10.840;2022-08-07T12:22:27;26.10;76.00
31309;DHT22;17936;52.446;10.840;2022-08-07T12:28:12;26.10;74.00
31309;DHT22;17936;52.446;10.840;2022-08-07T12:30:41;26.10;75.00
31309;DHT22;17936;52.446;10.840;2022-08-07T12:33:18;26.40;76.90
31309;DHT22;17936;52.446;10.840;2022-08-07T12:35:53;26.10;75.50
31309;DHT22;17936;52.446;10.840;2022-08-07T12:38:20;26.00;76.80
31309;DHT22;17936;52.446;10.840;2022-08-07T12:40:48;26.10;76.40
31309;DHT22;17936;52.446;10.840;2022-08-07T12:43:21;25.20;77.60
31309;DHT22;17936;52.446;10.840;2022-08-07T12:45:56;25.60;73.50
31309;DHT22;17936;52.446;10.840;2022-08-07T12:48:38;25.80;74.20
31309;DHT22;17936;52.446;10.840;2022-08-07T12:51:12;25.90;75.00
31309;DHT22;17936;52.446;10.840;2022-08-07T12:54:05;25.20;74.10
31309;DHT22;17936;52.446;10.840;2022-08-07T12:56:40;24.60;75.80
31309;DHT22;17936;52.446;10.840;2022-08-07T12:59:07;26.00;77.50
31309;DHT22;17936;52.446;10.840;2022-08-07T13:07:31;26.30;73.20
31309;DHT22;17936;52.446;10.840;2022-08-07T13:10:29;26.20;74.20
31309;DHT22;17936;52.446;10.840;2022-08-07T13:21:23;26.10;71.50
31309;DHT22;17936;52.446;10.840;2022-08-07T13:27:09;26.20;71.40
31309;DHT22;17936;52.446;10.840;2022-08-07T13:29:43;25.40;71.60
31309;DHT22;17936;52.446;10.840;2022-08-07T13:32:28;24.70;71.60
31309;DHT22;17936;52.446;10.840;2022-08-07T13:40:27;24.20;73.90
31309;DHT22;17936;52.446;10.840;2022-08-07T13:42:57;24.10;74.40
31309;DHT22;17936;52.446;10.840;2022-08-07T13:45:25;23.90;75.20
31309;DHT22;17936;52.446;10.840;2022-08-07T13:47:52;23.90;74.90
31309;DHT22;17936;52.446;10.840;2022-08-07T13:50:22;24.60;74.60
31309;DHT22;17936;52.446;10.840;2022-08-07T13:52:49;25.40;73.00
31309;DHT22;17936;52.446;10.840;2022-08-07T13:55:18;25.80;73.60
31309;DHT22;17936;52.446;10.840;2022-08-07T13:57:47;25.50;72.60
31309;DHT22;17936;52.446;10.840;2022-08-07T14:00:14;25.30;72.90
31309;DHT22;17936;52.446;10.840;2022-08-07T14:02:41;25.90;72.10
31309;DHT22;17936;52.446;10.840;2022-08-07T14:05:11;25.30;71.40
31309;DHT22;17936;52.446;10.840;2022-08-07T14:07:44;24.80;73.10
31309;DHT22;17936;52.446;10.840;2022-08-07T14:10:11;24.40;74.00
31309;DHT22;17936;52.446;10.840;2022-08-07T14:12:44;24.00;75.00
31309;DHT22;17936;52.446;10.840;2022-08-07T14:15:31;23.70;74.40
31309;DHT22;17936;52.446;10.840;2022-08-07T14:18:12;23.60;76.00
31309;DHT22;17936;52.446;10.840;2022-08-07T14:20:41;23.70;75.50
31309;DHT22;17936;52.446;10.840;2022-08-07T14:23:27;23.70;75.70
31309;DHT22;17936;52.446;10.840;2022-08-07T14:25:58;23.60;74.90
31309;DHT22;17936;52.446;10.840;2022-08-07T14:28:25;23.70;75.00
31309;DHT22;17936;52.446;10.840;2022-08-07T14:30:52;23.60;75.50
31309;DHT22;17936;52.446;10.840;2022-08-07T14:33:20;23.50;74.40
31309;DHT22;17936;52.446;10.840;2022-08-07T14:35:46;23.40;75.30
31309;DHT22;17936;52.446;10.840;2022-08-07T14:38:13;23.70;75.70
31309;DHT22;17936;52.446;10.840;2022-08-07T14:40:39;23.40;75.00
31309;DHT22;17936;52.446;10.840;2022-08-07T14:43:08;23.70;75.90
31309;DHT22;17936;52.446;10.840;2022-08-07T14:45:53;23.80;74.90
31309;DHT22;17936;52.446;10.840;2022-08-07T14:48:21;24.30;75.80
31309;DHT22;17936;52.446;10.840;2022-08-07T14:50:53;24.40;74.70
31309;DHT22;17936;52.446;10.840;2022-08-07T14:53:21;23.90;73.50
31309;DHT22;17936;52.446;10.840;2022-08-07T14:55:48;24.00;75.20
31309;DHT22;17936;52.446;10.840;2022-08-07T14:58:14;24.70;73.70
31309;DHT22;17936;52.446;10.840;2022-08-07T15:00:47;24.90;72.30
31309;DHT22;17936;52.446;10.840;2022-08-07T15:03:16;25.20;73.70
31309;DHT22;17936;52.446;10.840;2022-08-07T15:05:47;25.30;71.60
31309;DHT22;17936;52.446;10.840;2022-08-07T15:08:22;25.20;71.50
31309;DHT22;17936;52.446;10.840;2022-08-07T15:10:55;25.10;70.70
31309;DHT22;17936;52.446;10.840;2022-08-07T15:13:22;25.20;70.70
31309;DHT22;17936;52.446;10.840;2022-08-07T15:15:52;25.30;72.10
31309;DHT22;17936;52.446;10.840;2022-08-07T15:18:29;25.50;70.30
31309;DHT22;17936;52.446;10.840;2022-08-07T15:20:58;25.70;70.10
31309;DHT22;17936;52.446;10.840;2022-08-07T15:23:26;25.20;70.60
31309;DHT22;17936;52.446;10.840;2022-08-07T15:25:55;25.30;69.60
31309;DHT22;17936;52.446;10.840;2022-08-07T15:28:23;25.40;69.90
31309;DHT22;17936;52.446;10.840;2022-08-07T15:30:51;25.30;70.00
31309;DHT22;17936;52.446;10.840;2022-08-07T15:33:19;25.30;68.70
31309;DHT22;17936;52.446;10.840;2022-08-07T15:35:52;25.40;69.40
31309;DHT22;17936;52.446;10.840;2022-08-07T15:38:26;25.30;69.60
31309;DHT22;17936;52.446;10.840;2022-08-07T15:40:52;25.30;70.10
31309;DHT22;17936;52.446;10.840;2022-08-07T15:43:24;25.20;69.10
31309;DHT22;17936;52.446;10.840;2022-08-07T15:45:51;24.30;68.70
31309;DHT22;17936;52.446;10.840;2022-08-07T15:48:32;25.00;68.20
31309;DHT22;17936;52.446;10.840;2022-08-07T15:51:05;25.10;69.70
31309;DHT22;17936;52.446;10.840;2022-08-07T15:53:48;25.30;70.70
31309;DHT22;17936;52.446;10.840;2022-08-07T15:56:15;25.00;69.70
31309;DHT22;17936;52.446;10.840;2022-08-07T16:01:19;24.90;70.90
31309;DHT22;17936;52.446;10.840;2022-08-07T16:03:50;24.90;69.90
31309;DHT22;17936;52.446;10.840;2022-08-07T16:06:27;24.90;69.40
31309;DHT22;17936;52.446;10.840;2022-08-07T16:08:58;24.90;69.20
31309;DHT22;17936;52.446;10.840;2022-08-07T16:14:52;25.20;71.00
31309;DHT22;17936;52.446;10.840;2022-08-07T16:17:26;25.10;70.40
31309;DHT22;17936;52.446;10.840;2022-08-07T16:20:17;25.00;71.30
31309;DHT22;17936;52.446;10.840;2022-08-07T16:25:38;24.80;71.90
31309;DHT22;17936;52.446;10.840;2022-08-07T16:29:05;24.70;71.70
31309;DHT22;17936;52.446;10.840;2022-08-07T16:34:23;23.70;72.80
31309;DHT22;17936;52.446;10.840;2022-08-07T16:53:25;23.20;74.90
31309;DHT22;17936;52.446;10.840;2022-08-07T16:58:53;23.30;75.00
31309;DHT22;17936;52.446;10.840;2022-08-07T17:07:06;23.70;73.60
31309;DHT22;17936;52.446;10.840;2022-08-07T17:09:37;23.80;74.20
31309;DHT22;17936;52.446;10.840;2022-08-07T17:12:18;23.50;73.60
31309;DHT22;17936;52.446;10.840;2022-08-07T17:15:17;23.60;73.20
31309;DHT22;17936;52.446;10.840;2022-08-07T17:20:36;23.50;74.00
31309;DHT22;17936;52.446;10.840;2022-08-07T17:23:39;23.30;73.30
31309;DHT22;17936;52.446;10.840;2022-08-07T17:26:13;23.20;73.00
31309;DHT22;17936;52.446;10.840;2022-08-07T17:29:06;23.20;74.60
31309;DHT22;17936;52.446;10.840;2022-08-07T17:31:50;23.30;74.20
31309;DHT22;17936;52.446;10.840;2022-08-07T17:34:28;23.20;75.60
31309;DHT22;17936;52.446;10.840;2022-08-07T17:37:03;23.00;75.50
31309;DHT22;17936;52.446;10.840;2022-08-07T17:39:48;23.10;76.30
31309;DHT22;17936;52.446;10.840;2022-08-07T17:42:30;22.90;75.70
31309;DHT22;17936;52.446;10.840;2022-08-07T17:44:58;23.00;77.20
31309;DHT22;17936;52.446;10.840;2022-08-07T17:47:33;22.70;76.80
31309;DHT22;17936;52.446;10.840;2022-08-07T17:50:17;22.70;77.30
31309;DHT22;17936;52.446;10.840;2022-08-07T17:52:55;22.50;76.40
31309;DHT22;17936;52.446;10.840;2022-08-07T17:55:30;22.50;76.80
31309;DHT22;17936;52.446;10.840;2022-08-07T17:58:08;22.50;77.30
31309;DHT22;17936;52.446;10.840;2022-08-07T18:00:40;22.40;76.40
31309;DHT22;17936;52.446;10.840;2022-08-07T18:03:17;22.30;78.40
31309;DHT22;17936;52.446;10.840;2022-08-07T18:05:52;22.10;78.90